sensor_id;sensor_type;location;lat;lon;timestamp;P1;durP1;ratioP1;P2;durP2;ratioP2
22904;SDS011;11619;50.140;8.518;2023-07-29T00:02:15;7.45;;;6.75;;
22904;SDS011;11619;50.140;8.518;2023-07-29T00:04:41;7.18;;;6.38;;
22904;SDS011;11619;50.140;8.518;2023-07-29T00:07:08;7.18;;;6.57;;
22904;SDS011;11619;50.140;8.518;2023-07-29T00:09:34;8.35;;;7.18;;
22904;SDS011;11619;50.140;8.518;2023-07-29T00:12:00;7.80;;;7.10;;
22904;SDS011;11619;50.140;8.518;2023-07-29T00:14:27;7.43;;;6.72;;
22904;SDS011;11619;50.140;8.518;2023-07-29T00:16:53;6.78;;;6.13;;
22904;SDS011;11619;50.140;8.518;2023-07-29T00:19:20;7.43;;;6.82;;
22904;SDS011;11619;50.140;8.518;2023-07-29T00:21:49;7.88;;;7.25;;
22904;SDS011;11619;50.140;8.518;2023-07-29T00:24:15;9.18;;;8.40;;
22904;SDS011;11619;50.140;8.518;2023-07-29T00:26:42;10.60;;;9.65;;
22904;SDS011;11619;50.140;8.518;2023-07-29T00:29:08;10.70;;;9.73;;
22904;SDS011;11619;50.140;8.518;2023-07-29T00:31:35;11.00;;;9.90;;
22904;SDS011;11619;50.140;8.518;2023-07-29T00:34:01;14.02;;;12.73;;
22904;SDS011;11619;50.140;8.518;2023-07-29T00:36:28;13.18;;;11.98;;
22904;SDS011;11619;50.140;8.518;2023-07-29T00:38:54;12.95;;;11.75;;
22904;SDS011;11619;50.140;8.518;2023-07-29T00:41:23;14.63;;;13.07;;
22904;SDS011;11619;50.140;8.518;2023-07-29T00:43:49;14.45;;;12.65;;
22904;SDS011;11619;50.140;8.518;2023-07-29T00:46:16;13.43;;;12.23;;
22904;SDS011;11619;50.140;8.518;2023-07-29T00:48:43;14.73;;;13.40;;
22904;SDS011;11619;50.140;8.518;2023-07-29T00:51:09;13.75;;;12.52;;
22904;SDS011;11619;50.140;8.518;2023-07-29T00:53:36;15.48;;;13.90;;
22904;SDS011;11619;50.140;8.518;2023-07-29T00:56:03;12.35;;;11.23;;
22904;SDS011;11619;50.140;8.518;2023-07-29T00:58:29;13.77;;;12.57;;
22904;SDS011;11619;50.140;8.518;2023-07-29T01:00:56;16.40;;;14.95;;
22904;SDS011;11619;50.140;8.518;2023-07-29T01:03:23;15.85;;;14.45;;
22904;SDS011;11619;50.140;8.518;2023-07-29T01:06:01;16.30;;;14.50;;
22904;SDS011;11619;50.140;8.518;2023-07-29T01:08:38;15.50;;;14.05;;
22904;SDS011;11619;50.140;8.518;2023-07-29T01:13:48;14.25;;;13.15;;
22904;SDS011;11619;50.140;8.518;2023-07-29T01:16:30;12.82;;;11.57;;
22904;SDS011;11619;50.140;8.518;2023-07-29T01:19:05;13.25;;;11.95;;
22904;SDS011;11619;50.140;8.518;2023-07-29T01:21:35;13.82;;;12.55;;
22904;SDS011;11619;50.140;8.518;2023-07-29T01:24:02;11.98;;;11.07;;
22904;SDS011;11619;50.140;8.518;2023-07-29T01:26:29;11.05;;;10.05;;
22904;SDS011;11619;50.140;8.518;2023-07-29T01:28:56;11.77;;;10.38;;
22904;SDS011;11619;50.140;8.518;2023-07-29T01:31:25;11.57;;;10.57;;
22904;SDS011;11619;50.140;8.518;2023-07-29T01:33:58;9.90;;;9.10;;
22904;SDS011;11619;50.140;8.518;2023-07-29T01:36:27;10.27;;;9.38;;
22904;SDS011;11619;50.140;8.518;2023-07-29T01:38:54;10.60;;;9.60;;
22904;SDS011;11619;50.140;8.518;2023-07-29T01:41:22;8.55;;;7.85;;
22904;SDS011;11619;50.140;8.518;2023-07-29T01:43:50;9.27;;;8.20;;
22904;SDS011;11619;50.140;8.518;2023-07-29T01:46:17;10.45;;;9.45;;
22904;SDS011;11619;50.140;8.518;2023-07-29T01:48:43;10.43;;;9.48;;
22904;SDS011;11619;50.140;8.518;2023-07-29T01:51:11;11.27;;;10.38;;
22904;SDS011;11619;50.140;8.518;2023-07-29T01:53:38;11.60;;;10.00;;
22904;SDS011;11619;50.140;8.518;2023-07-29T01:56:04;11.43;;;10.48;;
22904;SDS011;11619;50.140;8.518;2023-07-29T01:58:31;12.30;;;11.23;;
22904;SDS011;11619;50.140;8.518;2023-07-29T02:00:57;13.60;;;12.48;;
22904;SDS011;11619;50.140;8.518;2023-07-29T02:03:24;13.98;;;12.48;;
22904;SDS011;11619;50.140;8.518;2023-07-29T02:05:50;14.35;;;13.20;;
22904;SDS011;11619;50.140;8.518;2023-07-29T02:08:17;14.80;;;13.02;;
22904;SDS011;11619;50.140;8.518;2023-07-29T02:10:43;15.15;;;12.95;;
22904;SDS011;11619;50.140;8.518;2023-07-29T02:13:12;14.45;;;13.18;;
22904;SDS011;11619;50.140;8.518;2023-07-29T02:15:38;13.98;;;12.77;;
22904;SDS011;11619;50.140;8.518;2023-07-29T02:18:05;14.55;;;13.07;;
22904;SDS011;11619;50.140;8.518;2023-07-29T02:20:33;14.15;;;12.88;;
22904;SDS011;11619;50.140;8.518;2023-07-29T02:23:00;13.82;;;12.63;;
22904;SDS011;11619;50.140;8.518;2023-07-29T02:25:27;15.10;;;12.88;;
22904;SDS011;11619;50.140;8.518;2023-07-29T02:27:53;13.75;;;12.55;;
22904;SDS011;11619;50.140;8.518;2023-07-29T02:30:20;15.45;;;14.15;;
22904;SDS011;11619;50.140;8.518;2023-07-29T02:32:47;14.55;;;13.15;;
22904;SDS011;11619;50.140;8.518;2023-07-29T02:35:14;14.95;;;13.55;;
22904;SDS011;11619;50.140;8.518;2023-07-29T02:37:40;14.38;;;12.98;;
22904;SDS011;11619;50.140;8.518;2023-07-29T02:40:07;14.95;;;13.55;;
22904;SDS011;11619;50.140;8.518;2023-07-29T02:42:33;14.95;;;12.27;;
22904;SDS011;11619;50.140;8.518;2023-07-29T02:45:00;13.52;;;11.95;;
22904;SDS011;11619;50.140;8.518;2023-07-29T02:47:26;16.55;;;11.75;;
22904;SDS011;11619;50.140;8.518;2023-07-29T02:49:53;18.52;;;11.73;;
22904;SDS011;11619;50.140;8.518;2023-07-29T02:52:19;14.68;;;12.50;;
22904;SDS011;11619;50.140;8.518;2023-07-29T02:54:46;12.98;;;11.68;;
22904;SDS011;11619;50.140;8.518;2023-07-29T02:57:13;14.27;;;12.77;;
22904;SDS011;11619;50.140;8.518;2023-07-29T02:59:39;13.77;;;12.45;;
22904;SDS011;11619;50.140;8.518;2023-07-29T03:02:06;18.50;;;13.43;;
22904;SDS011;11619;50.140;8.518;2023-07-29T03:04:33;15.10;;;13.60;;
22904;SDS011;11619;50.140;8.518;2023-07-29T03:06:59;12.75;;;11.45;;
22904;SDS011;11619;50.140;8.518;2023-07-29T03:09:26;13.45;;;12.18;;
22904;SDS011;11619;50.140;8.518;2023-07-29T03:11:52;14.63;;;13.18;;
22904;SDS011;11619;50.140;8.518;2023-07-29T03:14:20;13.18;;;11.90;;
22904;SDS011;11619;50.140;8.518;2023-07-29T03:16:47;16.35;;;14.43;;
22904;SDS011;11619;50.140;8.518;2023-07-29T03:19:14;15.48;;;13.88;;
22904;SDS011;11619;50.140;8.518;2023-07-29T03:21:41;14.82;;;13.07;;
22904;SDS011;11619;50.140;8.518;2023-07-29T03:24:07;15.15;;;13.68;;
22904;SDS011;11619;50.140;8.518;2023-07-29T03:26:34;13.85;;;12.38;;
22904;SDS011;11619;50.140;8.518;2023-07-29T03:29:01;15.77;;;14.10;;
22904;SDS011;11619;50.140;8.518;2023-07-29T03:31:27;13.68;;;12.38;;
22904;SDS011;11619;50.140;8.518;2023-07-29T03:33:54;13.35;;;12.05;;
22904;SDS011;11619;50.140;8.518;2023-07-29T03:36:20;12.15;;;11.15;;
22904;SDS011;11619;50.140;8.518;2023-07-29T03:38:48;12.10;;;10.90;;
22904;SDS011;11619;50.140;8.518;2023-07-29T03:41:14;11.18;;;10.23;;
22904;SDS011;11619;50.140;8.518;2023-07-29T03:43:41;11.50;;;10.48;;
22904;SDS011;11619;50.140;8.518;2023-07-29T03:46:07;11.82;;;10.80;;
22904;SDS011;11619;50.140;8.518;2023-07-29T03:48:37;11.13;;;9.85;;
22904;SDS011;11619;50.140;8.518;2023-07-29T03:51:04;11.23;;;10.13;;
22904;SDS011;11619;50.140;8.518;2023-07-29T03:53:30;10.07;;;9.13;;
22904;SDS011;11619;50.140;8.518;2023-07-29T03:55:57;10.88;;;9.85;;
22904;SDS011;11619;50.140;8.518;2023-07-29T03:58:23;11.43;;;10.43;;
22904;SDS011;11619;50.140;8.518;2023-07-29T04:00:50;11.20;;;10.27;;
22904;SDS011;11619;50.140;8.518;2023-07-29T04:03:16;11.43;;;10.32;;
22904;SDS011;11619;50.140;8.518;2023-07-29T04:05:43;12.23;;;10.50;;
22904;SDS011;11619;50.140;8.518;2023-07-29T04:08:09;11.57;;;10.65;;
22904;SDS011;11619;50.140;8.518;2023-07-29T04:10:36;10.45;;;9.55;;
22904;SDS011;11619;50.140;8.518;2023-07-29T04:13:04;10.95;;;10.00;;
22904;SDS011;11619;50.140;8.518;2023-07-29T04:15:30;10.18;;;9.30;;
22904;SDS011;11619;50.140;8.518;2023-07-29T04:17:57;11.80;;;10.65;;
22904;SDS011;11619;50.140;8.518;2023-07-29T04:20:24;10.65;;;9.18;;
22904;SDS011;11619;50.140;8.518;2023-07-29T04:22:50;11.65;;;9.43;;
22904;SDS011;11619;50.140;8.518;2023-07-29T04:25:17;10.23;;;9.32;;
22904;SDS011;11619;50.140;8.518;2023-07-29T04:27:43;10.27;;;9.38;;
22904;SDS011;11619;50.140;8.518;2023-07-29T04:30:10;10.63;;;9.50;;
22904;SDS011;11619;50.140;8.518;2023-07-29T04:32:36;10.77;;;9.77;;
22904;SDS011;11619;50.140;8.518;2023-07-29T04:35:03;11.90;;;8.70;;
22904;SDS011;11619;50.140;8.518;2023-07-29T04:37:30;9.93;;;9.02;;
22904;SDS011;11619;50.140;8.518;2023-07-29T04:39:56;10.73;;;9.73;;
22904;SDS011;11619;50.140;8.518;2023-07-29T04:42:23;10.35;;;9.55;;
22904;SDS011;11619;50.140;8.518;2023-07-29T04:44:49;9.43;;;8.73;;
22904;SDS011;11619;50.140;8.518;2023-07-29T04:47:16;9.65;;;8.85;;
22904;SDS011;11619;50.140;8.518;2023-07-29T04:49:42;10.63;;;9.65;;
22904;SDS011;11619;50.140;8.518;2023-07-29T04:52:09;10.07;;;9.25;;
22904;SDS011;11619;50.140;8.518;2023-07-29T04:54:35;10.77;;;9.82;;
22904;SDS011;11619;50.140;8.518;2023-07-29T04:57:02;11.18;;;9.82;;
22904;SDS011;11619;50.140;8.518;2023-07-29T04:59:29;11.05;;;10.13;;
22904;SDS011;11619;50.140;8.518;2023-07-29T05:01:55;10.77;;;9.98;;
22904;SDS011;11619;50.140;8.518;2023-07-29T05:04:22;10.52;;;9.50;;
22904;SDS011;11619;50.140;8.518;2023-07-29T05:06:49;10.38;;;9.40;;
22904;SDS011;11619;50.140;8.518;2023-07-29T05:09:17;10.52;;;9.63;;
22904;SDS011;11619;50.140;8.518;2023-07-29T05:11:46;11.70;;;10.55;;
22904;SDS011;11619;50.140;8.518;2023-07-29T05:14:13;11.73;;;10.73;;
22904;SDS011;11619;50.140;8.518;2023-07-29T05:16:40;11.18;;;10.07;;
22904;SDS011;11619;50.140;8.518;2023-07-29T05:19:07;11.73;;;10.73;;
22904;SDS011;11619;50.140;8.518;2023-07-29T05:21:34;13.05;;;11.70;;
22904;SDS011;11619;50.140;8.518;2023-07-29T05:24:00;12.55;;;11.45;;
22904;SDS011;11619;50.140;8.518;2023-07-29T05:26:27;10.68;;;9.68;;
22904;SDS011;11619;50.140;8.518;2023-07-29T05:28:55;11.13;;;10.20;;
22904;SDS011;11619;50.140;8.518;2023-07-29T05:31:22;12.30;;;11.00;;
22904;SDS011;11619;50.140;8.518;2023-07-29T05:33:48;10.95;;;10.05;;
22904;SDS011;11619;50.140;8.518;2023-07-29T05:36:15;12.15;;;11.15;;
22904;SDS011;11619;50.140;8.518;2023-07-29T05:38:41;11.48;;;10.57;;
22904;SDS011;11619;50.140;8.518;2023-07-29T05:41:08;11.88;;;10.77;;
22904;SDS011;11619;50.140;8.518;2023-07-29T05:43:34;11.90;;;10.77;;
22904;SDS011;11619;50.140;8.518;2023-07-29T05:46:01;13.20;;;12.02;;
22904;SDS011;11619;50.140;8.518;2023-07-29T05:48:27;13.15;;;11.85;;
22904;SDS011;11619;50.140;8.518;2023-07-29T05:50:54;13.73;;;12.45;;
22904;SDS011;11619;50.140;8.518;2023-07-29T05:53:20;13.48;;;12.23;;
22904;SDS011;11619;50.140;8.518;2023-07-29T05:55:47;13.55;;;12.18;;
22904;SDS011;11619;50.140;8.518;2023-07-29T05:58:13;12.52;;;11.32;;
22904;SDS011;11619;50.140;8.518;2023-07-29T06:00:40;12.65;;;11.60;;
22904;SDS011;11619;50.140;8.518;2023-07-29T06:03:06;12.35;;;11.18;;
22904;SDS011;11619;50.140;8.518;2023-07-29T06:05:33;11.90;;;10.80;;
22904;SDS011;11619;50.140;8.518;2023-07-29T06:07:59;11.30;;;10.40;;
22904;SDS011;11619;50.140;8.518;2023-07-29T06:10:26;12.95;;;11.60;;
22904;SDS011;11619;50.140;8.518;2023-07-29T06:12:53;12.35;;;11.10;;
22904;SDS011;11619;50.140;8.518;2023-07-29T06:15:19;11.40;;;10.50;;
22904;SDS011;11619;50.140;8.518;2023-07-29T06:17:49;10.48;;;9.57;;
22904;SDS011;11619;50.140;8.518;2023-07-29T06:20:15;11.30;;;10.40;;
22904;SDS011;11619;50.140;8.518;2023-07-29T06:22:42;10.77;;;9.88;;
22904;SDS011;11619;50.140;8.518;2023-07-29T06:25:09;11.18;;;10.27;;
22904;SDS011;11619;50.140;8.518;2023-07-29T06:27:35;12.13;;;11.02;;
22904;SDS011;11619;50.140;8.518;2023-07-29T06:30:02;12.52;;;11.32;;
22904;SDS011;11619;50.140;8.518;2023-07-29T06:32:29;10.88;;;9.95;;
22904;SDS011;11619;50.140;8.518;2023-07-29T06:34:56;11.27;;;10.38;;
22904;SDS011;11619;50.140;8.518;2023-07-29T06:37:22;11.02;;;10.13;;
22904;SDS011;11619;50.140;8.518;2023-07-29T06:39:48;12.02;;;10.65;;
22904;SDS011;11619;50.140;8.518;2023-07-29T06:42:15;11.02;;;10.23;;
22904;SDS011;11619;50.140;8.518;2023-07-29T06:44:41;10.63;;;9.70;;
22904;SDS011;11619;50.140;8.518;2023-07-29T06:47:08;9.85;;;9.15;;
22904;SDS011;11619;50.140;8.518;2023-07-29T06:49:35;9.98;;;9.07;;
22904;SDS011;11619;50.140;8.518;2023-07-29T06:52:01;10.82;;;9.82;;
22904;SDS011;11619;50.140;8.518;2023-07-29T06:54:28;10.18;;;9.00;;
22904;SDS011;11619;50.140;8.518;2023-07-29T06:56:54;8.95;;;8.20;;
22904;SDS011;11619;50.140;8.518;2023-07-29T06:59:21;7.75;;;7.18;;
22904;SDS011;11619;50.140;8.518;2023-07-29T07:01:47;7.13;;;6.43;;
22904;SDS011;11619;50.140;8.518;2023-07-29T07:04:14;9.93;;;7.93;;
22904;SDS011;11619;50.140;8.518;2023-07-29T07:06:41;6.70;;;6.20;;
22904;SDS011;11619;50.140;8.518;2023-07-29T07:09:07;7.07;;;6.47;;
22904;SDS011;11619;50.140;8.518;2023-07-29T07:11:34;5.40;;;5.00;;
22904;SDS011;11619;50.140;8.518;2023-07-29T07:14:00;7.70;;;5.32;;
22904;SDS011;11619;50.140;8.518;2023-07-29T07:16:27;5.28;;;4.93;;
22904;SDS011;11619;50.140;8.518;2023-07-29T07:18:56;5.75;;;5.25;;
22904;SDS011;11619;50.140;8.518;2023-07-29T07:21:23;5.18;;;4.68;;
22904;SDS011;11619;50.140;8.518;2023-07-29T07:23:50;6.22;;;5.82;;
22904;SDS011;11619;50.140;8.518;2023-07-29T07:26:16;6.18;;;5.68;;
22904;SDS011;11619;50.140;8.518;2023-07-29T07:28:43;5.95;;;5.43;;
22904;SDS011;11619;50.140;8.518;2023-07-29T07:31:11;6.65;;;6.05;;
22904;SDS011;11619;50.140;8.518;2023-07-29T07:33:37;10.80;;;4.72;;
22904;SDS011;11619;50.140;8.518;2023-07-29T07:36:04;5.60;;;5.20;;
22904;SDS011;11619;50.140;8.518;2023-07-29T07:38:30;5.15;;;4.75;;
22904;SDS011;11619;50.140;8.518;2023-07-29T07:40:57;6.53;;;5.00;;
22904;SDS011;11619;50.140;8.518;2023-07-29T07:43:24;5.30;;;4.85;;
22904;SDS011;11619;50.140;8.518;2023-07-29T07:45:51;5.35;;;4.85;;
22904;SDS011;11619;50.140;8.518;2023-07-29T07:48:17;5.38;;;4.90;;
22904;SDS011;11619;50.140;8.518;2023-07-29T07:50:46;5.28;;;4.63;;
22904;SDS011;11619;50.140;8.518;2023-07-29T07:53:12;4.93;;;4.50;;
22904;SDS011;11619;50.140;8.518;2023-07-29T07:55:39;4.50;;;4.20;;
22904;SDS011;11619;50.140;8.518;2023-07-29T07:58:05;4.75;;;4.32;;
22904;SDS011;11619;50.140;8.518;2023-07-29T08:00:32;5.82;;;4.50;;
22904;SDS011;11619;50.140;8.518;2023-07-29T08:02:58;4.60;;;4.15;;
22904;SDS011;11619;50.140;8.518;2023-07-29T08:05:25;5.30;;;4.75;;
22904;SDS011;11619;50.140;8.518;2023-07-29T08:07:51;4.50;;;4.07;;
22904;SDS011;11619;50.140;8.518;2023-07-29T08:10:17;5.45;;;4.97;;
22904;SDS011;11619;50.140;8.518;2023-07-29T08:12:44;4.43;;;3.80;;
22904;SDS011;11619;50.140;8.518;2023-07-29T08:15:10;5.28;;;4.05;;
22904;SDS011;11619;50.140;8.518;2023-07-29T08:17:37;4.97;;;4.53;;
22904;SDS011;11619;50.140;8.518;2023-07-29T08:20:03;5.30;;;4.55;;
22904;SDS011;11619;50.140;8.518;2023-07-29T08:22:30;4.97;;;4.57;;
22904;SDS011;11619;50.140;8.518;2023-07-29T08:25:00;4.45;;;4.05;;
22904;SDS011;11619;50.140;8.518;2023-07-29T08:27:26;4.13;;;3.83;;
22904;SDS011;11619;50.140;8.518;2023-07-29T08:29:53;5.00;;;4.13;;
22904;SDS011;11619;50.140;8.518;2023-07-29T08:32:20;4.80;;;4.20;;
22904;SDS011;11619;50.140;8.518;2023-07-29T08:34:47;5.63;;;4.10;;
22904;SDS011;11619;50.140;8.518;2023-07-29T08:37:13;3.88;;;3.58;;
22904;SDS011;11619;50.140;8.518;2023-07-29T08:39:40;4.45;;;4.05;;
22904;SDS011;11619;50.140;8.518;2023-07-29T08:42:07;3.70;;;3.40;;
22904;SDS011;11619;50.140;8.518;2023-07-29T08:44:41;4.15;;;3.75;;
22904;SDS011;11619;50.140;8.518;2023-07-29T08:47:09;3.22;;;2.97;;
22904;SDS011;11619;50.140;8.518;2023-07-29T08:49:36;2.92;;;2.72;;
22904;SDS011;11619;50.140;8.518;2023-07-29T08:52:03;3.10;;;2.80;;
22904;SDS011;11619;50.140;8.518;2023-07-29T08:54:30;4.40;;;2.97;;
22904;SDS011;11619;50.140;8.518;2023-07-29T08:56:57;4.25;;;2.33;;
22904;SDS011;11619;50.140;8.518;2023-07-29T08:59:24;3.90;;;2.45;;
22904;SDS011;11619;50.140;8.518;2023-07-29T09:01:53;3.15;;;2.65;;
22904;SDS011;11619;50.140;8.518;2023-07-29T09:04:23;2.97;;;2.65;;
22904;SDS011;11619;50.140;8.518;2023-07-29T09:06:50;2.85;;;2.55;;
22904;SDS011;11619;50.140;8.518;2023-07-29T09:09:16;3.60;;;2.28;;
22904;SDS011;11619;50.140;8.518;2023-07-29T09:11:43;2.58;;;2.38;;
22904;SDS011;11619;50.140;8.518;2023-07-29T09:14:09;2.42;;;2.22;;
22904;SDS011;11619;50.140;8.518;2023-07-29T09:16:36;2.58;;;2.38;;
22904;SDS011;11619;50.140;8.518;2023-07-29T09:19:04;3.97;;;2.35;;
22904;SDS011;11619;50.140;8.518;2023-07-29T09:21:31;2.38;;;2.10;;
22904;SDS011;11619;50.140;8.518;2023-07-29T09:23:58;3.67;;;2.78;;
22904;SDS011;11619;50.140;8.518;2023-07-29T09:26:28;2.45;;;2.00;;
22904;SDS011;11619;50.140;8.518;2023-07-29T09:28:55;3.17;;;2.08;;
22904;SDS011;11619;50.140;8.518;2023-07-29T09:31:23;3.38;;;1.70;;
22904;SDS011;11619;50.140;8.518;2023-07-29T09:33:56;3.08;;;2.10;;
22904;SDS011;11619;50.140;8.518;2023-07-29T09:36:26;2.90;;;1.70;;
22904;SDS011;11619;50.140;8.518;2023-07-29T09:38:53;4.25;;;1.75;;
22904;SDS011;11619;50.140;8.518;2023-07-29T09:41:24;2.28;;;1.88;;
22904;SDS011;11619;50.140;8.518;2023-07-29T09:43:55;3.17;;;1.90;;
22904;SDS011;11619;50.140;8.518;2023-07-29T09:46:25;1.77;;;1.63;;
22904;SDS011;11619;50.140;8.518;2023-07-29T09:48:54;3.05;;;2.13;;
22904;SDS011;11619;50.140;8.518;2023-07-29T09:51:23;2.03;;;1.63;;
22904;SDS011;11619;50.140;8.518;2023-07-29T09:53:50;2.10;;;1.73;;
22904;SDS011;11619;50.140;8.518;2023-07-29T09:56:18;3.38;;;1.90;;
22904;SDS011;11619;50.140;8.518;2023-07-29T09:58:51;2.67;;;1.77;;
22904;SDS011;11619;50.140;8.518;2023-07-29T10:01:18;2.08;;;1.80;;
22904;SDS011;11619;50.140;8.518;2023-07-29T10:03:45;2.13;;;1.58;;
22904;SDS011;11619;50.140;8.518;2023-07-29T10:06:12;3.00;;;1.95;;
22904;SDS011;11619;50.140;8.518;2023-07-29T10:08:40;3.22;;;1.70;;
22904;SDS011;11619;50.140;8.518;2023-07-29T10:11:07;2.22;;;1.40;;
22904;SDS011;11619;50.140;8.518;2023-07-29T10:13:34;1.80;;;1.70;;
22904;SDS011;11619;50.140;8.518;2023-07-29T10:16:02;2.28;;;1.42;;
22904;SDS011;11619;50.140;8.518;2023-07-29T10:18:29;2.00;;;1.90;;
22904;SDS011;11619;50.140;8.518;2023-07-29T10:20:57;2.70;;;1.50;;
22904;SDS011;11619;50.140;8.518;2023-07-29T10:23:25;3.60;;;1.77;;
22904;SDS011;11619;50.140;8.518;2023-07-29T10:26:02;3.05;;;1.80;;
22904;SDS011;11619;50.140;8.518;2023-07-29T10:28:30;2.58;;;1.80;;
22904;SDS011;11619;50.140;8.518;2023-07-29T10:30:58;1.50;;;1.40;;
22904;SDS011;11619;50.140;8.518;2023-07-29T10:33:25;1.85;;;1.25;;
22904;SDS011;11619;50.140;8.518;2023-07-29T10:35:53;5.40;;;1.60;;
22904;SDS011;11619;50.140;8.518;2023-07-29T10:38:23;1.98;;;1.60;;
22904;SDS011;11619;50.140;8.518;2023-07-29T10:40:51;1.63;;;1.52;;
22904;SDS011;11619;50.140;8.518;2023-07-29T10:43:26;2.97;;;1.63;;
22904;SDS011;11619;50.140;8.518;2023-07-29T10:45:55;2.60;;;1.42;;
22904;SDS011;11619;50.140;8.518;2023-07-29T10:48:41;1.73;;;1.40;;
22904;SDS011;11619;50.140;8.518;2023-07-29T10:54:04;1.60;;;1.50;;
22904;SDS011;11619;50.140;8.518;2023-07-29T10:56:36;3.47;;;1.70;;
22904;SDS011;11619;50.140;8.518;2023-07-29T11:01:39;4.20;;;1.95;;
22904;SDS011;11619;50.140;8.518;2023-07-29T11:04:21;2.25;;;1.67;;
22904;SDS011;11619;50.140;8.518;2023-07-29T11:12:36;2.05;;;1.50;;
22904;SDS011;11619;50.140;8.518;2023-07-29T11:15:12;1.77;;;1.38;;
22904;SDS011;11619;50.140;8.518;2023-07-29T11:17:50;3.08;;;1.60;;
22904;SDS011;11619;50.140;8.518;2023-07-29T11:20:18;1.63;;;1.52;;
22904;SDS011;11619;50.140;8.518;2023-07-29T11:22:45;2.95;;;1.65;;
22904;SDS011;11619;50.140;8.518;2023-07-29T11:25:13;1.85;;;1.40;;
22904;SDS011;11619;50.140;8.518;2023-07-29T11:27:40;1.90;;;1.38;;
22904;SDS011;11619;50.140;8.518;2023-07-29T11:30:08;2.03;;;1.42;;
22904;SDS011;11619;50.140;8.518;2023-07-29T11:32:39;1.83;;;1.30;;
22904;SDS011;11619;50.140;8.518;2023-07-29T11:35:08;1.45;;;1.35;;
22904;SDS011;11619;50.140;8.518;2023-07-29T11:37:39;4.50;;;1.50;;
22904;SDS011;11619;50.140;8.518;2023-07-29T11:40:06;2.22;;;1.60;;
22904;SDS011;11619;50.140;8.518;2023-07-29T11:42:33;2.58;;;1.50;;
22904;SDS011;11619;50.140;8.518;2023-07-29T11:45:00;1.83;;;1.60;;
22904;SDS011;11619;50.140;8.518;2023-07-29T11:47:29;2.63;;;1.70;;
22904;SDS011;11619;50.140;8.518;2023-07-29T11:49:58;1.50;;;1.40;;
22904;SDS011;11619;50.140;8.518;2023-07-29T11:52:34;2.13;;;1.40;;
22904;SDS011;11619;50.140;8.518;2023-07-29T11:55:04;1.63;;;1.50;;
22904;SDS011;11619;50.140;8.518;2023-07-29T11:57:37;1.80;;;1.38;;
22904;SDS011;11619;50.140;8.518;2023-07-29T12:00:05;1.67;;;1.35;;
22904;SDS011;11619;50.140;8.518;2023-07-29T12:02:34;1.33;;;1.10;;
22904;SDS011;11619;50.140;8.518;2023-07-29T12:05:03;2.20;;;1.27;;
22904;SDS011;11619;50.140;8.518;2023-07-29T12:07:31;1.70;;;1.60;;
22904;SDS011;11619;50.140;8.518;2023-07-29T12:09:59;1.58;;;1.40;;
22904;SDS011;11619;50.140;8.518;2023-07-29T12:12:26;2.75;;;1.58;;
22904;SDS011;11619;50.140;8.518;2023-07-29T12:14:54;2.85;;;1.50;;
22904;SDS011;11619;50.140;8.518;2023-07-29T12:17:20;2.50;;;1.85;;
22904;SDS011;11619;50.140;8.518;2023-07-29T12:19:47;1.75;;;1.60;;
22904;SDS011;11619;50.140;8.518;2023-07-29T12:22:17;1.88;;;1.60;;
22904;SDS011;11619;50.140;8.518;2023-07-29T12:24:45;1.90;;;1.58;;
22904;SDS011;11619;50.140;8.518;2023-07-29T12:27:12;1.95;;;1.50;;
22904;SDS011;11619;50.140;8.518;2023-07-29T12:29:40;4.47;;;1.92;;
22904;SDS011;11619;50.140;8.518;2023-07-29T12:32:08;1.65;;;1.50;;
22904;SDS011;11619;50.140;8.518;2023-07-29T12:34:35;2.30;;;1.75;;
22904;SDS011;11619;50.140;8.518;2023-07-29T12:37:03;1.60;;;1.48;;
22904;SDS011;11619;50.140;8.518;2023-07-29T12:39:34;2.20;;;1.65;;
22904;SDS011;11619;50.140;8.518;2023-07-29T12:42:02;1.92;;;1.83;;
22904;SDS011;11619;50.140;8.518;2023-07-29T12:44:30;1.65;;;1.50;;
22904;SDS011;11619;50.140;8.518;2023-07-29T12:47:00;1.75;;;1.60;;
22904;SDS011;11619;50.140;8.518;2023-07-29T12:49:27;1.60;;;1.50;;
22904;SDS011;11619;50.140;8.518;2023-07-29T12:51:58;1.40;;;1.30;;
22904;SDS011;11619;50.140;8.518;2023-07-29T12:54:25;2.03;;;1.67;;
22904;SDS011;11619;50.140;8.518;2023-07-29T12:56:55;2.80;;;1.60;;
22904;SDS011;11619;50.140;8.518;2023-07-29T12:59:21;2.20;;;1.60;;
22904;SDS011;11619;50.140;8.518;2023-07-29T13:01:48;2.88;;;1.60;;
22904;SDS011;11619;50.140;8.518;2023-07-29T13:04:15;1.95;;;1.70;;
22904;SDS011;11619;50.140;8.518;2023-07-29T13:06:42;1.80;;;1.70;;
22904;SDS011;11619;50.140;8.518;2023-07-29T13:09:08;3.38;;;1.50;;
22904;SDS011;11619;50.140;8.518;2023-07-29T13:11:35;2.47;;;1.50;;
22904;SDS011;11619;50.140;8.518;2023-07-29T13:14:01;3.25;;;1.70;;
22904;SDS011;11619;50.140;8.518;2023-07-29T13:16:28;2.28;;;1.98;;
22904;SDS011;11619;50.140;8.518;2023-07-29T13:18:55;1.90;;;1.80;;
22904;SDS011;11619;50.140;8.518;2023-07-29T13:21:22;1.70;;;1.60;;
22904;SDS011;11619;50.140;8.518;2023-07-29T13:23:48;2.92;;;1.38;;
22904;SDS011;11619;50.140;8.518;2023-07-29T13:26:15;1.75;;;1.48;;
22904;SDS011;11619;50.140;8.518;2023-07-29T13:28:42;1.70;;;1.60;;
22904;SDS011;11619;50.140;8.518;2023-07-29T13:31:09;1.63;;;1.52;;
22904;SDS011;11619;50.140;8.518;2023-07-29T13:33:35;2.67;;;1.58;;
22904;SDS011;11619;50.140;8.518;2023-07-29T13:36:02;1.30;;;1.20;;
22904;SDS011;11619;50.140;8.518;2023-07-29T13:38:29;2.05;;;1.85;;
22904;SDS011;11619;50.140;8.518;2023-07-29T13:40:56;1.60;;;1.40;;
22904;SDS011;11619;50.140;8.518;2023-07-29T13:43:22;2.10;;;1.65;;
22904;SDS011;11619;50.140;8.518;2023-07-29T13:45:49;2.55;;;1.40;;
22904;SDS011;11619;50.140;8.518;2023-07-29T13:48:17;1.98;;;1.67;;
22904;SDS011;11619;50.140;8.518;2023-07-29T13:50:44;2.45;;;1.48;;
22904;SDS011;11619;50.140;8.518;2023-07-29T13:53:10;1.63;;;1.40;;
22904;SDS011;11619;50.140;8.518;2023-07-29T13:55:37;4.00;;;1.67;;
22904;SDS011;11619;50.140;8.518;2023-07-29T13:58:03;2.05;;;1.73;;
22904;SDS011;11619;50.140;8.518;2023-07-29T14:00:30;3.28;;;1.70;;
22904;SDS011;11619;50.140;8.518;2023-07-29T14:02:56;1.60;;;1.50;;
22904;SDS011;11619;50.140;8.518;2023-07-29T14:05:23;1.60;;;1.48;;
22904;SDS011;11619;50.140;8.518;2023-07-29T14:07:50;1.80;;;1.55;;
22904;SDS011;11619;50.140;8.518;2023-07-29T14:10:16;1.50;;;1.40;;
22904;SDS011;11619;50.140;8.518;2023-07-29T14:12:43;3.45;;;1.63;;
22904;SDS011;11619;50.140;8.518;2023-07-29T14:15:09;1.80;;;1.70;;
22904;SDS011;11619;50.140;8.518;2023-07-29T14:17:36;4.78;;;1.83;;
22904;SDS011;11619;50.140;8.518;2023-07-29T14:20:02;1.52;;;1.42;;
22904;SDS011;11619;50.140;8.518;2023-07-29T14:22:31;1.35;;;1.25;;
22904;SDS011;11619;50.140;8.518;2023-07-29T14:24:57;2.83;;;1.65;;
22904;SDS011;11619;50.140;8.518;2023-07-29T14:27:26;1.95;;;1.67;;
22904;SDS011;11619;50.140;8.518;2023-07-29T14:29:52;2.25;;;1.70;;
22904;SDS011;11619;50.140;8.518;2023-07-29T14:32:19;4.32;;;1.85;;
22904;SDS011;11619;50.140;8.518;2023-07-29T14:34:48;1.70;;;1.60;;
22904;SDS011;11619;50.140;8.518;2023-07-29T14:37:15;2.35;;;1.20;;
22904;SDS011;11619;50.140;8.518;2023-07-29T14:39:41;3.13;;;1.63;;
22904;SDS011;11619;50.140;8.518;2023-07-29T14:42:08;2.05;;;1.45;;
22904;SDS011;11619;50.140;8.518;2023-07-29T14:44:34;2.90;;;1.60;;
22904;SDS011;11619;50.140;8.518;2023-07-29T14:47:01;1.65;;;1.55;;
22904;SDS011;11619;50.140;8.518;2023-07-29T14:49:27;1.92;;;1.50;;
22904;SDS011;11619;50.140;8.518;2023-07-29T14:51:54;1.63;;;1.52;;
22904;SDS011;11619;50.140;8.518;2023-07-29T14:54:21;1.52;;;1.42;;